Time;durP1;ratioP1;P1;durP2;ratioP2;P2;SDS_P1;SDS_P2;PMS_P1;PMS_P2;Temp;Humidity;BMP_temperature;BMP_pressure;BME280_temperature;BME280_humidity;BME280_pressure;Samples;Min_cycle;Max_cycle;Signal;HPM_P1;HPM_P2
2021/11/26 00:01:56;;;;;;;55.38;29.23;;;;;;;;;;6234431;28;20597;-65
2021/11/26 00:05:00;;;;;;;63.35;29.65;;;;;;;;;;6240082;28;20048;-65
2021/11/26 00:08:02;;;;;;;56.97;28.35;;;;;;;;;;6230652;28;20045;-65
2021/11/26 00:11:03;;;;;;;52.92;27.98;;;;;;;;;;6222331;28;20128;-64
2021/11/26 00:14:10;;;;;;;53.80;29.08;;;;;;;;;;6242474;28;20136;-65
2021/11/26 00:17:17;;;;;;;56.22;28.17;;;;;;;;;;6217408;28;20083;-64
2021/11/26 00:20:20;;;;;;;55.90;28.42;;;;;;;;;;6225448;28;20042;-65
2021/11/26 00:23:21;;;;;;;52.63;27.65;;;;;;;;;;6243802;28;20068;-64
2021/11/26 00:26:23;;;;;;;55.83;28.67;;;;;;;;;;6229976;28;20049;-64
2021/11/26 00:29:25;;;;;;;56.08;28.33;;;;;;;;;;6242050;28;20077;-64
2021/11/26 00:32:26;;;;;;;53.80;27.27;;;;;;;;;;6219351;28;20081;-65
2021/11/26 00:35:29;;;;;;;49.63;26.83;;;;;;;;;;6227320;28;20411;-65
2021/11/26 00:38:31;;;;;;;51.42;27.77;;;;;;;;;;6236796;28;20140;-64
2021/11/26 00:41:33;;;;;;;51.83;28.90;;;;;;;;;;6230309;28;20188;-65
2021/11/26 00:44:34;;;;;;;52.10;27.52;;;;;;;;;;6235910;28;20051;-64
2021/11/26 00:47:36;;;;;;;49.53;26.70;;;;;;;;;;6220394;28;20169;-65
2021/11/26 00:50:39;;;;;;;52.97;28.65;;;;;;;;;;6237683;28;20106;-65
2021/11/26 00:53:41;;;;;;;52.35;27.00;;;;;;;;;;6233692;28;20045;-65
2021/11/26 00:56:42;;;;;;;51.83;28.25;;;;;;;;;;6223779;28;20049;-64
2021/11/26 00:59:44;;;;;;;55.33;27.55;;;;;;;;;;6242389;28;20147;-64
2021/11/26 01:02:45;;;;;;;52.45;27.98;;;;;;;;;;6219277;28;20135;-64
2021/11/26 01:05:49;;;;;;;51.13;27.75;;;;;;;;;;6224866;28;20061;-64
2021/11/26 01:08:50;;;;;;;46.70;26.50;;;;;;;;;;6234577;28;20060;-65
2021/11/26 01:11:52;;;;;;;49.60;26.48;;;;;;;;;;6223710;28;20259;-64
2021/11/26 01:14:53;;;;;;;46.10;25.98;;;;;;;;;;6232365;28;21042;-64
2021/11/26 01:17:55;;;;;;;48.35;27.30;;;;;;;;;;6218732;28;20129;-64
2021/11/26 01:20:57;;;;;;;48.45;25.92;;;;;;;;;;6221973;28;20045;-65
2021/11/26 01:23:59;;;;;;;49.55;25.95;;;;;;;;;;6237362;28;20148;-65
2021/11/26 01:27:03;;;;;;;54.13;25.90;;;;;;;;;;6227678;28;20064;-65
2021/11/26 01:30:12;;;;;;;46.40;25.27;;;;;;;;;;6234106;28;20125;-65
2021/11/26 01:33:14;;;;;;;44.70;25.15;;;;;;;;;;6230258;28;20045;-64
2021/11/26 01:36:16;;;;;;;42.88;25.75;;;;;;;;;;6220554;28;20669;-64
2021/11/26 01:39:18;;;;;;;44.50;25.75;;;;;;;;;;6232921;28;20477;-65
2021/11/26 01:42:19;;;;;;;40.58;24.08;;;;;;;;;;6229016;28;20098;-64
2021/11/26 01:45:22;;;;;;;44.88;25.80;;;;;;;;;;6222628;28;20090;-65
2021/11/26 01:48:24;;;;;;;44.72;25.52;;;;;;;;;;6232255;28;20602;-64
2021/11/26 01:51:27;;;;;;;44.42;24.95;;;;;;;;;;6226178;28;20088;-64
2021/11/26 01:54:28;;;;;;;48.13;24.88;;;;;;;;;;6236144;28;20052;-65
2021/11/26 01:57:30;;;;;;;42.65;24.38;;;;;;;;;;6232385;28;20075;-65
2021/11/26 02:00:32;;;;;;;46.85;24.52;;;;;;;;;;6225014;28;20033;-65
2021/11/26 02:03:34;;;;;;;45.97;25.75;;;;;;;;;;6236596;28;20056;-65
2021/11/26 02:06:37;;;;;;;49.25;26.55;;;;;;;;;;6226524;28;20072;-64
2021/11/26 02:09:38;;;;;;;45.05;24.23;;;;;;;;;;6241226;28;20132;-64
2021/11/26 02:12:40;;;;;;;45.05;25.67;;;;;;;;;;6225597;28;20128;-64
2021/11/26 02:15:43;;;;;;;46.20;24.40;;;;;;;;;;6222228;28;20152;-64
2021/11/26 02:18:46;;;;;;;43.80;25.42;;;;;;;;;;6230922;28;20045;-64
2021/11/26 02:21:49;;;;;;;48.53;27.20;;;;;;;;;;6226570;28;20114;-64
2021/11/26 02:24:50;;;;;;;42.83;24.33;;;;;;;;;;6236868;28;20557;-64
2021/11/26 02:27:55;;;;;;;44.85;24.63;;;;;;;;;;6222105;28;20053;-64
2021/11/26 02:30:57;;;;;;;44.20;25.23;;;;;;;;;;6223744;28;20053;-65
2021/11/26 02:33:58;;;;;;;46.80;26.27;;;;;;;;;;6232968;28;20493;-64
2021/11/26 02:37:01;;;;;;;46.47;26.17;;;;;;;;;;6217872;28;20049;-64
2021/11/26 02:40:03;;;;;;;49.10;27.30;;;;;;;;;;6233853;28;20137;-64
2021/11/26 02:43:04;;;;;;;52.45;27.98;;;;;;;;;;6230327;28;20128;-64
2021/11/26 02:46:06;;;;;;;52.10;27.73;;;;;;;;;;6219568;28;20049;-65
2021/11/26 02:49:07;;;;;;;49.60;28.40;;;;;;;;;;6225016;28;20132;-64
2021/11/26 02:52:10;;;;;;;55.80;28.52;;;;;;;;;;6224959;28;20049;-64
2021/11/26 02:55:13;;;;;;;54.85;28.83;;;;;;;;;;6229494;28;20046;-65
2021/11/26 02:58:14;;;;;;;56.10;29.15;;;;;;;;;;6232413;28;21362;-64
2021/11/26 03:01:16;;;;;;;55.05;28.35;;;;;;;;;;6224581;28;20045;-64
2021/11/26 03:04:17;;;;;;;48.10;25.98;;;;;;;;;;6228991;28;20423;-64
2021/11/26 03:07:20;;;;;;;59.35;28.67;;;;;;;;;;6219762;28;20049;-64
2021/11/26 03:10:22;;;;;;;56.63;28.33;;;;;;;;;;6222051;28;20049;-65
2021/11/26 03:13:24;;;;;;;55.55;28.60;;;;;;;;;;6231111;28;20051;-64
2021/11/26 03:16:25;;;;;;;52.20;28.45;;;;;;;;;;6235460;28;20045;-64
2021/11/26 03:19:27;;;;;;;59.13;28.52;;;;;;;;;;6238882;28;20041;-64
2021/11/26 03:22:29;;;;;;;64.50;31.05;;;;;;;;;;6231261;28;20053;-64
2021/11/26 03:25:31;;;;;;;57.25;30.05;;;;;;;;;;6225158;28;20038;-64
2021/11/26 03:28:32;;;;;;;62.28;29.08;;;;;;;;;;6248241;28;20048;-65
2021/11/26 03:31:34;;;;;;;57.80;29.52;;;;;;;;;;6233129;28;20121;-64
2021/11/26 03:34:35;;;;;;;55.35;29.27;;;;;;;;;;6235772;28;20087;-64
2021/11/26 03:37:38;;;;;;;53.58;28.42;;;;;;;;;;6229951;28;20396;-64
2021/11/26 03:40:40;;;;;;;52.15;28.02;;;;;;;;;;6235103;28;20045;-64
2021/11/26 03:43:41;;;;;;;53.15;27.98;;;;;;;;;;6243001;28;20053;-64
2021/11/26 03:46:42;;;;;;;48.40;26.70;;;;;;;;;;6223261;28;20266;-64
2021/11/26 03:49:44;;;;;;;45.15;25.15;;;;;;;;;;6234746;28;20045;-64
2021/11/26 03:52:46;;;;;;;50.70;28.58;;;;;;;;;;6230066;28;20541;-64
2021/11/26 03:55:48;;;;;;;53.17;29.60;;;;;;;;;;6229495;28;20046;-64
2021/11/26 03:58:49;;;;;;;52.97;29.00;;;;;;;;;;6225697;28;20045;-64
2021/11/26 04:01:51;;;;;;;50.03;28.20;;;;;;;;;;6223968;28;20180;-65
2021/11/26 04:04:52;;;;;;;51.00;28.77;;;;;;;;;;6239562;28;20128;-64
2021/11/26 04:07:55;;;;;;;55.33;29.13;;;;;;;;;;6225760;28;20142;-64
2021/11/26 04:10:56;;;;;;;54.75;30.17;;;;;;;;;;6231887;28;20491;-64
2021/11/26 04:13:58;;;;;;;52.42;29.67;;;;;;;;;;6240902;28;20609;-64
2021/11/26 04:16:59;;;;;;;54.08;29.27;;;;;;;;;;6216155;28;20539;-64
2021/11/26 04:20:00;;;;;;;49.55;29.15;;;;;;;;;;6231468;28;20037;-65
2021/11/26 04:23:04;;;;;;;51.95;28.15;;;;;;;;;;6228613;28;20051;-64
2021/11/26 04:26:05;;;;;;;56.37;28.73;;;;;;;;;;6227363;28;20188;-64
2021/11/26 04:29:07;;;;;;;49.80;28.27;;;;;;;;;;6240417;28;20061;-65
2021/11/26 04:32:08;;;;;;;47.67;26.70;;;;;;;;;;6228792;28;20049;-64
2021/11/26 04:35:10;;;;;;;47.30;28.05;;;;;;;;;;6234455;28;20258;-65
2021/11/26 04:38:13;;;;;;;48.22;27.13;;;;;;;;;;6237585;28;20048;-64
2021/11/26 04:41:14;;;;;;;50.50;28.33;;;;;;;;;;6228110;28;20057;-64
2021/11/26 04:44:16;;;;;;;48.03;25.88;;;;;;;;;;6238384;28;20088;-64
2021/11/26 04:47:17;;;;;;;46.75;26.13;;;;;;;;;;6220656;28;20042;-65
2021/11/26 04:50:19;;;;;;;44.90;26.52;;;;;;;;;;6225204;28;20073;-64
2021/11/26 04:53:21;;;;;;;41.38;24.73;;;;;;;;;;6243942;28;20081;-65
2021/11/26 04:56:23;;;;;;;41.60;24.02;;;;;;;;;;6230282;28;20372;-64
2021/11/26 04:59:24;;;;;;;41.08;25.42;;;;;;;;;;6234981;28;20045;-64
2021/11/26 05:02:26;;;;;;;38.72;24.73;;;;;;;;;;6222192;28;20053;-65
2021/11/26 05:05:28;;;;;;;39.58;23.52;;;;;;;;;;6228484;28;20665;-65
2021/11/26 05:08:31;;;;;;;40.38;22.60;;;;;;;;;;6238877;28;20050;-64
2021/11/26 05:11:33;;;;;;;38.30;22.38;;;;;;;;;;6231357;28;20271;-64
2021/11/26 05:14:34;;;;;;;35.70;23.05;;;;;;;;;;6241277;28;20157;-64
2021/11/26 05:17:36;;;;;;;40.92;23.98;;;;;;;;;;6221222;28;20042;-65
2021/11/26 05:20:37;;;;;;;38.95;24.42;;;;;;;;;;6223341;28;20073;-65
2021/11/26 05:23:40;;;;;;;39.13;22.75;;;;;;;;;;6236810;28;20063;-65
2021/11/26 05:26:41;;;;;;;36.33;22.70;;;;;;;;;;6229548;28;20142;-64
2021/11/26 05:29:43;;;;;;;37.17;21.52;;;;;;;;;;6236767;28;20042;-64
2021/11/26 05:32:44;;;;;;;38.30;22.30;;;;;;;;;;6212730;28;20057;-65
2021/11/26 05:35:46;;;;;;;38.75;23.05;;;;;;;;;;6229548;28;20081;-64
2021/11/26 05:38:49;;;;;;;43.17;24.05;;;;;;;;;;6233666;28;20215;-65
2021/11/26 05:41:50;;;;;;;39.88;23.17;;;;;;;;;;6226598;28;20056;-64
2021/11/26 05:44:51;;;;;;;42.70;23.92;;;;;;;;;;6246187;28;20057;-64
2021/11/26 05:47:53;;;;;;;43.00;25.67;;;;;;;;;;6222056;28;20102;-65
2021/11/26 05:50:54;;;;;;;42.65;24.95;;;;;;;;;;6232563;28;20519;-65
2021/11/26 05:53:57;;;;;;;47.15;26.48;;;;;;;;;;6240419;28;20413;-65
2021/11/26 05:56:58;;;;;;;44.30;25.60;;;;;;;;;;6226078;28;20058;-65
2021/11/26 06:00:00;;;;;;;43.75;26.50;;;;;;;;;;6237896;28;20178;-65
2021/11/26 06:03:02;;;;;;;46.13;26.02;;;;;;;;;;6224575;28;20041;-64
2021/11/26 06:06:03;;;;;;;43.00;25.25;;;;;;;;;;6221207;28;20528;-65
2021/11/26 06:09:06;;;;;;;44.15;26.30;;;;;;;;;;6230500;28;20045;-65
2021/11/26 06:12:09;;;;;;;45.58;24.95;;;;;;;;;;6225000;28;20052;-65
2021/11/26 06:15:11;;;;;;;44.83;25.45;;;;;;;;;;6227988;28;20217;-65
2021/11/26 06:18:13;;;;;;;42.35;24.55;;;;;;;;;;6226719;28;20075;-65
2021/11/26 06:21:14;;;;;;;44.72;24.90;;;;;;;;;;6224431;28;20041;-64
2021/11/26 06:24:17;;;;;;;46.60;25.45;;;;;;;;;;6234294;28;20072;-64
2021/11/26 06:27:18;;;;;;;43.75;25.83;;;;;;;;;;6226097;28;20048;-65
2021/11/26 06:30:21;;;;;;;42.95;23.80;;;;;;;;;;6233960;28;20164;-65
2021/11/26 06:33:22;;;;;;;44.63;24.45;;;;;;;;;;6226808;28;20158;-65
2021/11/26 06:36:23;;;;;;;42.58;24.38;;;;;;;;;;6225798;28;20128;-65
2021/11/26 06:39:26;;;;;;;46.20;27.10;;;;;;;;;;6230793;28;20121;-65
2021/11/26 06:42:28;;;;;;;42.92;24.23;;;;;;;;;;6221961;28;20136;-65
2021/11/26 06:45:29;;;;;;;44.60;24.38;;;;;;;;;;6228388;28;20226;-65
2021/11/26 06:48:31;;;;;;;44.05;24.70;;;;;;;;;;6233726;28;20107;-65
2021/11/26 06:51:32;;;;;;;43.50;24.42;;;;;;;;;;6220362;28;20045;-65
2021/11/26 06:54:35;;;;;;;44.30;24.90;;;;;;;;;;6243018;28;20195;-64
2021/11/26 06:57:37;;;;;;;45.30;24.70;;;;;;;;;;6227369;28;20429;-65
2021/11/26 07:00:38;;;;;;;38.40;22.90;;;;;;;;;;6229905;28;20100;-65
2021/11/26 07:03:39;;;;;;;41.42;24.25;;;;;;;;;;6238777;28;20060;-65
2021/11/26 07:06:41;;;;;;;40.97;24.70;;;;;;;;;;6230349;28;20102;-65
2021/11/26 07:09:43;;;;;;;40.33;24.45;;;;;;;;;;6235703;28;20037;-65
2021/11/26 07:12:45;;;;;;;40.58;22.65;;;;;;;;;;6222732;28;20045;-64
2021/11/26 07:15:47;;;;;;;37.22;22.42;;;;;;;;;;6226980;28;20056;-65
2021/11/26 07:18:48;;;;;;;41.53;23.35;;;;;;;;;;6230387;28;20041;-65
2021/11/26 07:21:50;;;;;;;39.38;23.33;;;;;;;;;;6223187;28;20045;-65
2021/11/26 07:24:52;;;;;;;36.50;22.52;;;;;;;;;;6237996;28;20675;-65
2021/11/26 07:27:54;;;;;;;40.03;23.77;;;;;;;;;;6228890;28;20103;-65
2021/11/26 07:30:56;;;;;;;43.38;24.23;;;;;;;;;;6228658;28;20199;-65
2021/11/26 07:33:57;;;;;;;39.60;24.42;;;;;;;;;;6236191;28;20061;-65
2021/11/26 07:36:59;;;;;;;38.72;23.23;;;;;;;;;;6233578;28;20041;-64
2021/11/26 07:40:02;;;;;;;35.63;22.08;;;;;;;;;;6255339;28;20044;-64
2021/11/26 07:43:03;;;;;;;38.05;22.80;;;;;;;;;;6229514;28;20138;-65
2021/11/26 07:46:04;;;;;;;42.22;23.70;;;;;;;;;;6229075;28;20073;-65
2021/11/26 07:49:06;;;;;;;40.00;23.25;;;;;;;;;;6232347;28;20417;-65
2021/11/26 07:52:09;;;;;;;41.83;25.15;;;;;;;;;;6231710;28;20064;-65
2021/11/26 07:55:13;;;;;;;41.50;23.55;;;;;;;;;;6236644;28;20046;-65
2021/11/26 07:58:14;;;;;;;38.58;23.52;;;;;;;;;;6239239;28;20064;-64
2021/11/26 08:01:15;;;;;;;36.33;22.10;;;;;;;;;;6230778;28;20527;-65
2021/11/26 08:04:17;;;;;;;36.75;22.60;;;;;;;;;;6235849;28;20108;-64
2021/11/26 08:07:19;;;;;;;36.80;23.25;;;;;;;;;;6220692;28;20108;-65
2021/11/26 08:10:21;;;;;;;42.13;24.10;;;;;;;;;;6230573;28;20052;-65
2021/11/26 08:13:23;;;;;;;36.97;22.98;;;;;;;;;;6240862;28;20177;-65
2021/11/26 08:16:24;;;;;;;36.80;22.02;;;;;;;;;;6225591;28;20049;-65
2021/11/26 08:19:26;;;;;;;38.88;23.27;;;;;;;;;;6239255;28;20144;-65
2021/11/26 08:22:27;;;;;;;37.78;23.00;;;;;;;;;;6230266;28;20057;-65
2021/11/26 08:25:31;;;;;;;35.40;21.50;;;;;;;;;;6225630;28;20034;-65
2021/11/26 08:28:32;;;;;;;34.65;20.92;;;;;;;;;;6238659;28;20042;-65
2021/11/26 08:31:33;;;;;;;32.45;20.17;;;;;;;;;;6216516;28;20732;-65
2021/11/26 08:34:35;;;;;;;36.50;22.52;;;;;;;;;;6243061;28;20496;-64
2021/11/26 08:37:36;;;;;;;36.10;21.33;;;;;;;;;;6214750;28;20455;-65
2021/11/26 08:40:39;;;;;;;37.63;21.33;;;;;;;;;;6226217;28;20606;-65
2021/11/26 08:43:40;;;;;;;34.88;21.67;;;;;;;;;;6245317;28;20068;-65
2021/11/26 08:46:42;;;;;;;34.13;20.50;;;;;;;;;;6229129;28;20042;-65
2021/11/26 08:49:43;;;;;;;34.40;20.10;;;;;;;;;;6240519;28;20184;-65
2021/11/26 08:52:46;;;;;;;30.80;19.23;;;;;;;;;;6226088;28;20042;-65
2021/11/26 08:55:52;;;;;;;33.60;19.73;;;;;;;;;;6231766;28;20041;-65
2021/11/26 08:58:53;;;;;;;30.75;19.65;;;;;;;;;;6241348;28;20053;-64
2021/11/26 09:01:55;;;;;;;30.80;20.80;;;;;;;;;;6223624;28;20192;-65
2021/11/26 09:04:56;;;;;;;32.03;20.25;;;;;;;;;;6246895;28;20107;-65
2021/11/26 09:08:00;;;;;;;35.47;20.70;;;;;;;;;;6232304;28;20116;-65
2021/11/26 09:11:02;;;;;;;35.08;21.38;;;;;;;;;;6230139;28;20088;-65
2021/11/26 09:14:05;;;;;;;32.47;20.55;;;;;;;;;;6255386;28;20053;-65
2021/11/26 09:17:07;;;;;;;33.47;20.95;;;;;;;;;;6226518;28;20485;-65
2021/11/26 09:20:09;;;;;;;31.15;19.90;;;;;;;;;;6238390;28;20132;-65
2021/11/26 09:23:11;;;;;;;32.25;19.83;;;;;;;;;;6237300;28;20094;-65
2021/11/26 09:26:14;;;;;;;30.23;19.10;;;;;;;;;;6222456;28;20183;-65
2021/11/26 09:29:15;;;;;;;26.92;18.98;;;;;;;;;;6237633;28;20100;-65
2021/11/26 09:32:16;;;;;;;28.75;19.02;;;;;;;;;;6225783;28;20148;-65
2021/11/26 09:35:18;;;;;;;25.55;17.95;;;;;;;;;;6228124;28;20087;-65
2021/11/26 09:38:22;;;;;;;25.70;17.70;;;;;;;;;;6232756;28;20095;-65
2021/11/26 09:41:24;;;;;;;;;;;;;;;;;;6224036;28;20123;-65
2021/11/26 09:44:32;;;;;;;27.65;18.02;;;;;;;;;;6237824;28;20356;-66
2021/11/26 09:47:33;;;;;;;22.73;17.02;;;;;;;;;;6209596;28;20048;-66
2021/11/26 09:50:34;;;;;;;27.20;19.23;;;;;;;;;;6228214;28;20187;-65
2021/11/26 09:53:36;;;;;;;26.52;19.52;;;;;;;;;;6236117;28;20108;-65
2021/11/26 09:56:37;;;;;;;26.05;19.90;;;;;;;;;;6222047;28;20042;-66
2021/11/26 09:59:42;;;;;;;24.73;18.83;;;;;;;;;;6238257;28;20073;-66
2021/11/26 10:02:50;;;;;;;28.35;17.77;;;;;;;;;;6221986;28;20053;-65
2021/11/26 10:05:52;;;;;;;24.48;17.90;;;;;;;;;;6225310;28;20528;-65
2021/11/26 10:08:57;;;;;;;26.40;17.73;;;;;;;;;;6238955;28;20060;-65
2021/11/26 10:12:03;;;;;;;27.13;17.83;;;;;;;;;;6231303;28;20056;-65
2021/11/26 10:15:07;;;;;;;25.55;18.10;;;;;;;;;;6236683;28;20390;-65
2021/11/26 10:18:15;;;;;;;22.38;16.98;;;;;;;;;;6228541;28;20084;-65
2021/11/26 10:21:17;;;;;;;24.58;17.88;;;;;;;;;;6226391;28;20046;-65
2021/11/26 10:24:18;;;;;;;26.40;16.42;;;;;;;;;;6240938;28;20126;-65
2021/11/26 10:27:19;;;;;;;29.52;17.40;;;;;;;;;;6237023;28;20045;-65
2021/11/26 10:30:23;;;;;;;24.30;16.45;;;;;;;;;;6232407;28;20397;-66
2021/11/26 10:33:25;;;;;;;20.50;15.45;;;;;;;;;;6231968;28;20053;-65
2021/11/26 10:36:28;;;;;;;20.30;15.40;;;;;;;;;;6230966;28;20128;-65
2021/11/26 10:39:29;;;;;;;20.02;14.65;;;;;;;;;;6241651;28;20415;-65
2021/11/26 10:42:31;;;;;;;19.85;13.70;;;;;;;;;;6225178;28;20098;-65
2021/11/26 10:45:59;;;;;;;21.45;15.43;;;;;;;;;;6222181;28;20060;-66
2021/11/26 10:49:31;;;;;;;21.60;15.50;;;;;;;;;;6224880;28;20050;-65
2021/11/26 10:59:03;;;;;;;21.20;15.15;;;;;;;;;;6243911;28;20409;-66
2021/11/26 11:02:07;;;;;;;19.38;15.25;;;;;;;;;;6219124;28;20175;-66
2021/11/26 11:05:09;;;;;;;15.68;13.63;;;;;;;;;;6232304;28;20046;-67
2021/11/26 11:08:21;;;;;;;17.17;13.55;;;;;;;;;;6227746;28;20058;-66
2021/11/26 11:11:23;;;;;;;16.27;13.05;;;;;;;;;;6226475;28;20194;-66
2021/11/26 11:14:25;;;;;;;14.95;12.73;;;;;;;;;;6233475;28;20719;-66
2021/11/26 11:17:29;;;;;;;19.13;12.35;;;;;;;;;;6218499;28;20053;-66
2021/11/26 11:20:31;;;;;;;16.40;12.60;;;;;;;;;;6229315;28;20057;-66
2021/11/26 11:23:32;;;;;;;12.18;9.98;;;;;;;;;;6233173;28;20045;-66
2021/11/26 11:26:33;;;;;;;9.90;7.75;;;;;;;;;;6234215;28;20345;-66
2021/11/26 11:29:35;;;;;;;9.50;7.78;;;;;;;;;;6236568;28;20594;-66
2021/11/26 11:32:38;;;;;;;11.05;8.32;;;;;;;;;;6223714;28;20046;-66
2021/11/26 11:35:41;;;;;;;12.95;10.05;;;;;;;;;;6226102;28;20046;-66
2021/11/26 11:38:42;;;;;;;12.15;10.23;;;;;;;;;;6240841;28;20357;-66
2021/11/26 11:41:45;;;;;;;14.05;11.57;;;;;;;;;;6226666;28;20080;-66
2021/11/26 11:44:46;;;;;;;11.98;10.57;;;;;;;;;;6244872;28;20626;-66
2021/11/26 11:47:50;;;;;;;9.90;8.82;;;;;;;;;;6226886;28;20136;-66
2021/11/26 11:50:52;;;;;;;12.90;8.82;;;;;;;;;;6225608;28;20072;-66
2021/11/26 11:54:06;;;;;;;7.88;7.07;;;;;;;;;;6235248;28;20076;-66
2021/11/26 11:57:08;;;;;;;8.50;7.50;;;;;;;;;;6227024;28;20192;-66
2021/11/26 12:00:14;;;;;;;7.55;6.78;;;;;;;;;;6235886;28;20060;-66
2021/11/26 12:03:17;;;;;;;8.38;7.47;;;;;;;;;;6228498;28;20053;-66
2021/11/26 12:06:19;;;;;;;8.63;7.03;;;;;;;;;;6228209;28;20662;-66
2021/11/26 12:09:22;;;;;;;17.48;12.98;;;;;;;;;;6239307;28;20110;-66
2021/11/26 12:12:23;;;;;;;61.97;35.28;;;;;;;;;;6235584;28;20048;-65
2021/11/26 12:15:28;;;;;;;6.93;5.80;;;;;;;;;;6231228;28;20049;-65
2021/11/26 12:18:37;;;;;;;6.03;5.22;;;;;;;;;;6234029;28;20068;-65
2021/11/26 12:21:45;;;;;;;5.35;4.82;;;;;;;;;;6229170;28;20129;-65
2021/11/26 12:24:50;;;;;;;5.47;4.10;;;;;;;;;;6242849;28;20157;-65
2021/11/26 12:27:55;;;;;;;6.47;4.20;;;;;;;;;;6227906;28;20056;-65
2021/11/26 12:31:00;;;;;;;4.22;3.58;;;;;;;;;;6224873;28;20046;-65
2021/11/26 12:34:03;;;;;;;5.13;4.00;;;;;;;;;;6242198;28;20091;-65
2021/11/26 12:37:15;;;;;;;3.65;3.30;;;;;;;;;;6227960;28;20103;-65
2021/11/26 12:40:18;;;;;;;4.90;4.05;;;;;;;;;;6231268;28;20454;-65
2021/11/26 12:43:19;;;;;;;4.15;3.60;;;;;;;;;;6229766;28;20092;-65
2021/11/26 12:46:22;;;;;;;4.20;3.55;;;;;;;;;;6226915;28;20037;-66
2021/11/26 12:49:31;;;;;;;4.18;3.65;;;;;;;;;;6236418;28;20049;-66
2021/11/26 12:52:33;;;;;;;4.22;3.50;;;;;;;;;;6226292;28;20056;-66
2021/11/26 12:55:34;;;;;;;4.55;3.60;;;;;;;;;;6230975;28;20228;-66
2021/11/26 12:58:43;;;;;;;5.05;3.92;;;;;;;;;;6236410;28;20208;-66
2021/11/26 13:01:49;;;;;;;5.03;4.05;;;;;;;;;;6224156;28;20180;-66
2021/11/26 13:04:53;;;;;;;5.50;3.78;;;;;;;;;;6238239;28;20102;-66
2021/11/26 13:07:54;;;;;;;4.82;4.30;;;;;;;;;;6230686;28;20088;-65
2021/11/26 13:10:56;;;;;;;5.18;4.20;;;;;;;;;;6232425;28;20052;-65
2021/11/26 13:14:02;;;;;;;5.57;4.13;;;;;;;;;;6244873;28;20073;-65
2021/11/26 13:17:03;;;;;;;5.82;4.65;;;;;;;;;;6230889;28;20126;-66
2021/11/26 13:20:09;;;;;;;4.72;4.00;;;;;;;;;;6237282;28;20081;-66
2021/11/26 13:23:13;;;;;;;5.35;4.10;;;;;;;;;;6243320;28;20057;-66
2021/11/26 13:26:14;;;;;;;4.55;4.10;;;;;;;;;;6231915;28;20050;-66
2021/11/26 13:29:15;;;;;;;6.80;4.43;;;;;;;;;;6240124;28;20198;-66
2021/11/26 13:32:17;;;;;;;6.57;4.43;;;;;;;;;;6213477;28;20481;-66
2021/11/26 13:35:27;;;;;;;5.28;4.47;;;;;;;;;;6225667;28;20120;-66
2021/11/26 13:38:31;;;;;;;5.60;4.70;;;;;;;;;;6239241;28;20127;-66
2021/11/26 13:41:33;;;;;;;5.57;4.78;;;;;;;;;;6227058;28;20052;-66
2021/11/26 13:44:35;;;;;;;6.53;5.13;;;;;;;;;;6242140;28;20461;-66
2021/11/26 13:47:36;;;;;;;8.05;5.03;;;;;;;;;;6230917;28;20811;-66
2021/11/26 13:50:39;;;;;;;7.28;5.57;;;;;;;;;;6230532;28;20132;-67
2021/11/26 13:53:41;;;;;;;7.00;5.50;;;;;;;;;;6236081;28;21563;-66
2021/11/26 13:56:43;;;;;;;7.28;5.65;;;;;;;;;;6229417;28;20045;-67
2021/11/26 13:59:45;;;;;;;7.35;5.22;;;;;;;;;;6242045;28;20128;-67
2021/11/26 14:02:49;;;;;;;8.88;5.28;;;;;;;;;;6219074;28;20123;-67
2021/11/26 14:05:50;;;;;;;;;;;;;;;;;;6217543;28;20525;-66
2021/11/26 14:08:53;;;;;;;5.72;4.80;;;;;;;;;;6248294;28;19998;-66
2021/11/26 14:11:55;;;;;;;8.18;5.57;;;;;;;;;;6231144;28;20175;-66
2021/11/26 14:14:56;;;;;;;6.28;4.65;;;;;;;;;;6229287;28;20045;-66
2021/11/26 14:18:08;;;;;;;6.40;4.88;;;;;;;;;;6227907;28;20053;-67
2021/11/26 14:21:11;;;;;;;6.68;4.85;;;;;;;;;;6223651;28;20081;-67
2021/11/26 14:24:14;;;;;;;22.93;18.17;;;;;;;;;;6233199;28;20087;-67
2021/11/26 14:27:17;;;;;;;51.95;33.47;;;;;;;;;;6220966;28;20077;-67
2021/11/26 14:30:22;;;;;;;20.77;15.35;;;;;;;;;;6235158;28;20049;-67
2021/11/26 14:33:23;;;;;;;8.70;6.72;;;;;;;;;;6228140;28;20045;-66
2021/11/26 14:36:29;;;;;;;7.47;5.10;;;;;;;;;;6227813;28;20101;-66
2021/11/26 14:39:33;;;;;;;6.13;4.70;;;;;;;;;;6239726;28;20041;-66
2021/11/26 14:42:34;;;;;;;5.57;4.70;;;;;;;;;;6228744;28;20611;-66
2021/11/26 14:45:38;;;;;;;8.43;4.50;;;;;;;;;;6228018;28;20034;-67
2021/11/26 14:48:41;;;;;;;6.15;4.22;;;;;;;;;;6226813;28;20064;-66
2021/11/26 14:51:43;;;;;;;5.47;4.18;;;;;;;;;;6221044;28;20386;-67
2021/11/26 14:54:46;;;;;;;5.20;3.95;;;;;;;;;;6243066;28;20088;-66
2021/11/26 14:57:48;;;;;;;5.30;3.45;;;;;;;;;;6218647;28;20051;-68
2021/11/26 15:00:50;;;;;;;5.68;4.10;;;;;;;;;;6220580;28;20046;-69
2021/11/26 15:03:52;;;;;;;8.80;5.15;;;;;;;;;;6231065;28;20046;-66
2021/11/26 15:06:54;;;;;;;5.68;4.32;;;;;;;;;;6227716;28;20049;-66
2021/11/26 15:09:57;;;;;;;4.72;3.50;;;;;;;;;;6251014;28;20151;-67
2021/11/26 15:12:58;;;;;;;5.03;3.77;;;;;;;;;;6229045;28;20058;-67
2021/11/26 15:15:59;;;;;;;6.65;4.03;;;;;;;;;;6227306;28;20639;-66
2021/11/26 15:19:01;;;;;;;6.50;4.18;;;;;;;;;;6237306;28;20113;-66
2021/11/26 15:22:03;;;;;;;7.57;4.85;;;;;;;;;;6232608;28;20117;-66
2021/11/26 15:25:06;;;;;;;6.20;4.45;;;;;;;;;;6238931;28;20087;-66
2021/11/26 15:28:07;;;;;;;6.20;4.72;;;;;;;;;;6232705;28;20045;-66
2021/11/26 15:31:09;;;;;;;6.28;4.25;;;;;;;;;;6215202;28;20057;-66
2021/11/26 15:34:10;;;;;;;9.75;5.30;;;;;;;;;;6230226;28;20049;-66
2021/11/26 15:37:12;;;;;;;7.82;4.35;;;;;;;;;;6229912;28;20065;-66
2021/11/26 15:40:15;;;;;;;5.65;4.25;;;;;;;;;;6241216;28;20053;-66
2021/11/26 15:43:17;;;;;;;7.63;4.40;;;;;;;;;;6241436;28;20705;-66
2021/11/26 15:46:18;;;;;;;6.63;4.53;;;;;;;;;;6224717;28;20045;-66
2021/11/26 15:49:20;;;;;;;6.60;4.15;;;;;;;;;;6238600;28;20045;-66
2021/11/26 15:52:21;;;;;;;6.47;4.32;;;;;;;;;;6228487;28;20042;-66
2021/11/26 15:55:24;;;;;;;6.88;3.78;;;;;;;;;;6237587;28;20049;-66
2021/11/26 15:58:26;;;;;;;5.97;4.35;;;;;;;;;;6244068;28;20497;-66
2021/11/26 16:01:27;;;;;;;5.45;4.20;;;;;;;;;;6222889;28;20252;-65
2021/11/26 16:04:29;;;;;;;5.43;4.18;;;;;;;;;;6243443;28;20157;-66
2021/11/26 16:07:31;;;;;;;6.10;4.13;;;;;;;;;;6223768;28;20443;-66
2021/11/26 16:10:34;;;;;;;7.00;4.22;;;;;;;;;;6233330;28;20160;-66
2021/11/26 16:13:35;;;;;;;8.80;4.30;;;;;;;;;;6241598;28;20132;-65
2021/11/26 16:16:36;;;;;;;5.15;3.90;;;;;;;;;;6225974;28;20124;-66
2021/11/26 16:19:38;;;;;;;7.45;4.35;;;;;;;;;;6231438;28;20072;-66
2021/11/26 16:22:40;;;;;;;6.32;4.47;;;;;;;;;;6227309;28;20053;-66
2021/11/26 16:25:42;;;;;;;8.93;5.05;;;;;;;;;;6233800;28;20151;-66
2021/11/26 16:28:44;;;;;;;9.93;5.13;;;;;;;;;;6238395;28;20737;-66
2021/11/26 16:31:50;;;;;;;6.97;4.80;;;;;;;;;;6224191;28;20061;-65
2021/11/26 16:34:53;;;;;;;8.98;6.10;;;;;;;;;;6239486;28;20484;-66
2021/11/26 16:37:54;;;;;;;8.77;5.38;;;;;;;;;;6228738;28;20167;-66
2021/11/26 16:40:57;;;;;;;6.47;5.22;;;;;;;;;;6235104;28;20084;-66
2021/11/26 16:43:58;;;;;;;8.02;5.10;;;;;;;;;;6241563;28;20037;-66
2021/11/26 16:47:00;;;;;;;7.72;5.18;;;;;;;;;;6225846;28;20408;-66
2021/11/26 16:50:01;;;;;;;10.00;5.40;;;;;;;;;;6244462;28;20195;-65
2021/11/26 16:53:03;;;;;;;8.50;5.30;;;;;;;;;;6227884;28;20072;-66
2021/11/26 16:56:06;;;;;;;9.13;5.47;;;;;;;;;;6225831;28;20128;-66
2021/11/26 16:59:08;;;;;;;8.93;5.68;;;;;;;;;;6239604;28;20561;-65
2021/11/26 17:02:10;;;;;;;12.48;5.78;;;;;;;;;;6230390;28;20099;-66
2021/11/26 17:05:11;;;;;;;8.73;5.47;;;;;;;;;;6229946;28;20453;-66
2021/11/26 17:08:13;;;;;;;8.23;5.47;;;;;;;;;;6243009;28;20045;-66
2021/11/26 17:11:15;;;;;;;8.25;5.20;;;;;;;;;;6231885;28;20052;-66
2021/11/26 17:14:17;;;;;;;10.55;6.57;;;;;;;;;;6239180;28;20049;-65
2021/11/26 17:17:19;;;;;;;9.00;6.50;;;;;;;;;;6221969;28;20140;-66
2021/11/26 17:20:20;;;;;;;9.65;5.95;;;;;;;;;;6230933;28;20045;-66
2021/11/26 17:23:22;;;;;;;13.40;7.00;;;;;;;;;;6237487;28;20049;-66
2021/11/26 17:26:24;;;;;;;11.68;7.35;;;;;;;;;;6229220;28;20557;-66
2021/11/26 17:29:26;;;;;;;12.15;8.20;;;;;;;;;;6246333;28;20057;-66
2021/11/26 17:32:28;;;;;;;12.75;7.97;;;;;;;;;;6229641;28;20575;-66
2021/11/26 17:35:29;;;;;;;14.45;9.45;;;;;;;;;;6224650;28;20128;-66
2021/11/26 17:38:31;;;;;;;16.13;10.07;;;;;;;;;;6237999;28;20045;-66
2021/11/26 17:41:34;;;;;;;14.52;10.25;;;;;;;;;;6229238;28;20108;-66
2021/11/26 17:44:35;;;;;;;15.52;10.52;;;;;;;;;;6233962;28;20048;-66
2021/11/26 17:47:37;;;;;;;16.20;10.88;;;;;;;;;;6224169;28;20132;-66
2021/11/26 17:50:38;;;;;;;16.48;10.88;;;;;;;;;;6227218;28;20042;-66
2021/11/26 17:53:40;;;;;;;17.33;10.88;;;;;;;;;;6235694;28;20424;-66
2021/11/26 17:56:42;;;;;;;16.27;11.60;;;;;;;;;;6221170;28;20283;-66
2021/11/26 17:59:44;;;;;;;17.17;12.30;;;;;;;;;;6228446;28;20041;-66